createdAt,value
2023-01-18T00:01:02.135Z,98327.16
2023-01-18T00:03:33.399Z,98324.22
2023-01-18T00:06:01.894Z,98318.03
2023-01-18T00:08:29.696Z,98320.44
2023-01-18T00:11:04.873Z,98326.81
2023-01-18T00:13:32.453Z,98332.16
2023-01-18T00:16:03.563Z,98329.31
2023-01-18T00:18:31.085Z,98316.84
2023-01-18T00:21:01.080Z,98317.56
2023-01-18T00:23:28.672Z,98330.50
2023-01-18T00:26:00.246Z,98332.50
2023-01-18T00:28:29.247Z,98327.41
2023-01-18T00:30:56.829Z,98325.97
2023-01-18T00:33:24.294Z,98332.84
2023-01-18T00:35:58.044Z,98325.44
2023-01-18T00:38:25.547Z,98318.84
2023-01-18T00:40:53.099Z,98323.84
2023-01-18T00:43:38.094Z,98329.34
2023-01-18T00:46:07.208Z,98321.06
2023-01-18T00:48:35.006Z,98326.09
2023-01-18T00:51:02.553Z,98330.81
2023-01-18T00:53:30.120Z,98322.97
2023-01-18T00:55:57.595Z,98338.94
2023-01-18T00:58:25.090Z,98334.25
2023-01-18T01:00:53.075Z,98322.19
2023-01-18T01:03:22.027Z,98326.22
2023-01-18T01:06:07.080Z,98328.84
2023-01-18T01:08:34.820Z,98341.63
2023-01-18T01:11:06.116Z,98339.84
2023-01-18T01:13:51.227Z,98345.50
2023-01-18T01:16:36.049Z,98332.66
2023-01-18T01:19:22.228Z,98321.88
2023-01-18T01:22:07.047Z,98339.75
2023-01-18T01:24:51.965Z,98335.94
2023-01-18T01:27:19.447Z,98333.53
2023-01-18T01:29:46.968Z,98338.84
2023-01-18T01:32:14.526Z,98329.47
2023-01-18T01:34:43.368Z,98335.84
2023-01-18T01:37:10.880Z,98353.72
2023-01-18T01:39:38.440Z,98351.31
2023-01-18T01:42:05.949Z,98347.09
2023-01-18T01:44:54.331Z,98354.81
2023-01-18T01:47:26.206Z,98347.97
2023-01-18T01:49:56.197Z,98352.16
2023-01-18T01:52:24.606Z,98360.50
2023-01-18T01:54:54.112Z,98361.41
2023-01-18T01:57:22.155Z,98364.31
2023-01-18T01:59:50.643Z,98362.41
2023-01-18T02:02:18.205Z,98370.72
2023-01-18T02:04:46.503Z,98369.78
2023-01-18T02:07:15.428Z,98367.19
2023-01-18T02:09:42.905Z,98362.44
2023-01-18T02:12:10.420Z,98377.72
2023-01-18T02:14:37.942Z,98380.91
2023-01-18T02:17:08.616Z,98381.16
2023-01-18T02:19:45.223Z,98370.13
2023-01-18T02:22:14.778Z,98378.19
2023-01-18T02:24:48.990Z,98383.38
2023-01-18T02:27:18.746Z,98388.63
2023-01-18T02:29:56.690Z,98379.72
2023-01-18T02:32:27.165Z,98377.56
2023-01-18T02:34:56.673Z,98373.13
2023-01-18T02:37:26.673Z,98379.97
2023-01-18T02:39:58.936Z,98386.13
2023-01-18T02:42:46.280Z,98391.47
2023-01-18T02:45:35.891Z,98387.50
2023-01-18T02:48:03.663Z,98389.19
2023-01-18T02:50:31.209Z,98394.69
2023-01-18T02:52:59.158Z,98391.63
2023-01-18T02:55:30.198Z,98396.66
2023-01-18T02:57:58.145Z,98403.13
2023-01-18T03:00:27.038Z,98396.44
2023-01-18T03:02:54.593Z,98403.06
2023-01-18T03:05:22.477Z,98403.88
2023-01-18T03:07:51.891Z,98394.22
2023-01-18T03:10:19.418Z,98393.84
2023-01-18T03:12:48.946Z,98392.53
2023-01-18T03:15:18.911Z,98406.09
2023-01-18T03:17:49.193Z,98409.75
2023-01-18T03:20:17.127Z,98406.25
2023-01-18T03:23:04.020Z,98404.13
2023-01-18T03:25:32.659Z,98398.50
2023-01-18T03:28:18.161Z,98409.34
2023-01-18T03:31:02.897Z,98402.59
2023-01-18T03:33:47.203Z,98405.63
2023-01-18T03:36:17.586Z,98402.44
2023-01-18T03:38:45.579Z,98405.78
2023-01-18T03:41:13.076Z,98406.09
2023-01-18T03:43:40.881Z,98408.69
2023-01-18T03:46:09.015Z,98398.00
2023-01-18T03:48:37.900Z,98401.34
2023-01-18T03:51:08.209Z,98402.53
2023-01-18T03:53:39.103Z,98415.63
2023-01-18T03:56:07.894Z,98410.97
2023-01-18T03:58:36.283Z,98413.28
2023-01-18T04:01:04.899Z,98414.25
2023-01-18T04:03:32.731Z,98410.47
2023-01-18T04:06:01.811Z,98424.69
2023-01-18T04:08:29.326Z,98420.13
2023-01-18T04:10:56.911Z,98422.56
2023-01-18T04:13:24.400Z,98425.00
2023-01-18T04:15:51.908Z,98427.66
2023-01-18T04:18:19.402Z,98431.19
2023-01-18T04:20:46.889Z,98417.09
2023-01-18T04:23:15.705Z,98428.50
2023-01-18T04:25:49.968Z,98432.78
2023-01-18T04:28:25.441Z,98437.06
2023-01-18T04:30:53.412Z,98443.16
2023-01-18T04:33:21.607Z,98437.66
2023-01-18T04:35:49.165Z,98446.03
2023-01-18T04:38:18.061Z,98454.13
2023-01-18T04:40:45.563Z,98447.78
2023-01-18T04:43:13.114Z,98444.63
2023-01-18T04:45:40.732Z,98456.94
2023-01-18T04:48:08.285Z,98442.03
2023-01-18T04:50:35.843Z,98454.13
2023-01-18T04:53:03.369Z,98447.38
2023-01-18T04:55:32.197Z,98450.19
2023-01-18T04:58:01.076Z,98458.69
2023-01-18T05:00:28.681Z,98460.38
2023-01-18T05:02:56.459Z,98464.28
2023-01-18T05:05:24.099Z,98466.22
2023-01-18T05:07:51.557Z,98453.00
2023-01-18T05:10:19.027Z,98462.13
2023-01-18T05:12:47.878Z,98465.53
2023-01-18T05:15:15.522Z,98461.78
2023-01-18T05:17:43.811Z,98467.38
2023-01-18T05:20:11.969Z,98464.94
2023-01-18T05:22:39.463Z,98466.72
2023-01-18T05:25:07.237Z,98463.34
2023-01-18T05:27:34.784Z,98472.56
2023-01-18T05:30:05.888Z,98478.31
2023-01-18T05:32:34.211Z,98484.06
2023-01-18T05:35:01.700Z,98485.31
2023-01-18T05:37:29.226Z,98485.22
2023-01-18T05:39:56.705Z,98478.38
2023-01-18T05:42:24.197Z,98486.81
2023-01-18T05:44:51.649Z,98493.50
2023-01-18T05:47:20.480Z,98496.28
2023-01-18T05:49:48.034Z,98500.94
2023-01-18T05:52:15.666Z,98514.41
2023-01-18T05:54:43.166Z,98518.22
2023-01-18T05:57:10.943Z,98509.53
2023-01-18T05:59:38.451Z,98519.47
2023-01-18T06:02:06.059Z,98516.53
2023-01-18T06:04:35.005Z,98512.16
2023-01-18T06:07:02.535Z,98504.66
2023-01-18T06:09:30.316Z,98513.19
2023-01-18T06:11:57.855Z,98515.91
2023-01-18T06:14:25.391Z,98514.31
2023-01-18T06:16:52.915Z,98520.75
2023-01-18T06:19:20.432Z,98523.69
2023-01-18T06:21:49.323Z,98538.63
2023-01-18T06:24:16.847Z,98538.50
2023-01-18T06:26:44.391Z,98542.44
2023-01-18T06:29:11.884Z,98551.81
2023-01-18T06:31:39.418Z,98549.00
2023-01-18T06:34:09.386Z,98551.44
2023-01-18T06:36:37.065Z,98555.16
2023-01-18T06:39:06.018Z,98556.63
2023-01-18T06:41:33.566Z,98558.13
2023-01-18T06:44:01.051Z,98572.53
2023-01-18T06:46:28.697Z,98566.50
2023-01-18T06:48:56.362Z,98569.53
2023-01-18T06:51:24.132Z,98588.63
2023-01-18T06:53:51.793Z,98580.59
2023-01-18T06:56:20.856Z,98581.22
2023-01-18T06:58:48.517Z,98592.13
2023-01-18T07:01:16.269Z,98589.63
2023-01-18T07:03:44.088Z,98594.91
2023-01-18T07:06:12.108Z,98597.72
2023-01-18T07:08:40.154Z,98591.28
2023-01-18T07:11:09.446Z,98600.03
2023-01-18T07:13:40.170Z,98605.03
2023-01-18T07:16:09.269Z,98592.91
2023-01-18T07:18:36.906Z,98617.91
2023-01-18T07:21:07.084Z,98599.63
2023-01-18T07:23:36.190Z,98621.84
2023-01-18T07:26:04.379Z,98632.97
2023-01-18T07:28:32.804Z,98634.13
2023-01-18T07:31:02.296Z,98625.72
2023-01-18T07:33:30.880Z,98616.09
2023-01-18T07:35:58.872Z,98626.09
2023-01-18T07:38:27.176Z,98636.16
2023-01-18T07:41:02.225Z,98631.06
2023-01-18T07:43:30.624Z,98627.84
2023-01-18T07:45:59.095Z,98630.94
2023-01-18T07:48:29.167Z,98630.84
2023-01-18T07:50:57.609Z,98634.47
2023-01-18T07:53:26.109Z,98630.22
2023-01-18T07:55:54.346Z,98640.59
2023-01-18T07:58:22.339Z,98629.03
2023-01-18T08:00:50.100Z,98640.97
2023-01-18T08:03:19.113Z,98653.00
2023-01-18T08:05:48.443Z,98653.75
2023-01-18T08:08:17.561Z,98666.09
2023-01-18T08:10:46.087Z,98660.31
2023-01-18T08:13:13.813Z,98666.06
2023-01-18T08:15:41.610Z,98663.84
2023-01-18T08:18:09.609Z,98668.75
2023-01-18T08:20:37.305Z,98664.13
2023-01-18T08:23:06.354Z,98674.47
2023-01-18T08:25:34.033Z,98673.22
2023-01-18T08:28:03.172Z,98674.59
2023-01-18T08:30:32.413Z,98683.69
2023-01-18T08:33:02.016Z,98679.66
2023-01-18T08:35:31.839Z,98687.09
2023-01-18T08:38:00.584Z,98702.31
2023-01-18T08:40:30.162Z,98686.72
2023-01-18T08:42:58.923Z,98708.75
2023-01-18T08:45:27.278Z,98707.25
2023-01-18T08:47:58.662Z,98712.34
2023-01-18T08:50:26.407Z,98704.78
2023-01-18T08:52:54.396Z,98719.53
2023-01-18T08:55:22.747Z,98720.53
2023-01-18T08:57:54.961Z,98725.41
2023-01-18T09:00:26.757Z,98722.66
2023-01-18T09:02:54.737Z,98738.88
2023-01-18T09:05:22.524Z,98732.13
2023-01-18T09:07:50.956Z,98741.19
2023-01-18T09:10:21.245Z,98740.84
2023-01-18T09:12:48.990Z,98723.84
2023-01-18T09:15:18.850Z,98742.31
2023-01-18T09:17:46.575Z,98745.88
2023-01-18T09:20:14.854Z,98743.31
2023-01-18T09:22:44.528Z,98749.97
2023-01-18T09:25:12.248Z,98758.28
2023-01-18T09:27:39.926Z,98753.38
2023-01-18T09:30:09.524Z,98761.16
2023-01-18T09:32:39.311Z,98771.25
2023-01-18T09:35:08.610Z,98774.13
2023-01-18T09:37:36.307Z,98766.44
2023-01-18T09:40:04.143Z,98766.97
2023-01-18T09:42:37.180Z,98775.69
2023-01-18T09:45:05.648Z,98769.41
2023-01-18T09:47:36.744Z,98793.78
2023-01-18T09:50:10.877Z,98787.59
2023-01-18T09:52:44.458Z,98797.84
2023-01-18T09:55:17.979Z,98789.28
2023-01-18T09:58:03.202Z,98795.88
2023-01-18T10:00:32.781Z,98793.50
2023-01-18T10:03:04.030Z,98793.47
2023-01-18T10:05:36.602Z,98782.47
2023-01-18T10:08:07.969Z,98795.13
2023-01-18T10:10:38.768Z,98794.47
2023-01-18T10:13:37.876Z,98796.72
2023-01-18T10:16:05.891Z,98815.94
2023-01-18T10:18:39.193Z,98811.22
2023-01-18T10:21:09.046Z,98813.41
2023-01-18T10:23:42.385Z,98813.47
2023-01-18T10:26:16.682Z,98807.19
2023-01-18T10:28:50.670Z,98814.75
2023-01-18T10:31:27.558Z,98819.13
2023-01-18T10:33:57.823Z,98818.13
2023-01-18T10:36:32.508Z,98807.69
2023-01-18T10:39:04.213Z,98819.38
2023-01-18T10:41:36.117Z,98819.88
2023-01-18T10:44:03.849Z,98815.59
2023-01-18T10:46:32.087Z,98803.25
2023-01-18T10:48:59.849Z,98814.06
2023-01-18T10:51:35.263Z,98795.94
2023-01-18T10:54:23.119Z,98807.59
2023-01-18T10:56:50.940Z,98806.28
2023-01-18T10:59:26.625Z,98811.59
2023-01-18T11:01:56.971Z,98810.75
2023-01-18T11:04:28.170Z,98803.72
2023-01-18T11:06:59.676Z,98814.53
2023-01-18T11:09:41.935Z,98806.50
2023-01-18T11:12:37.245Z,98808.38
2023-01-18T11:15:25.794Z,98785.75
2023-01-18T11:18:11.925Z,98794.94
2023-01-18T11:20:48.085Z,98802.72
2023-01-18T11:23:21.116Z,98797.78
2023-01-18T11:25:53.572Z,98793.78
2023-01-18T11:28:23.523Z,98808.97
2023-01-18T11:30:54.315Z,98801.69
2023-01-18T11:33:23.295Z,98788.03
2023-01-18T11:35:55.654Z,98807.66
2023-01-18T11:38:28.498Z,98814.81
2023-01-18T11:41:15.358Z,98781.84
2023-01-18T11:43:48.229Z,98804.31
2023-01-18T11:46:30.315Z,98803.19
2023-01-18T11:49:02.891Z,98804.69
2023-01-18T11:51:34.295Z,98803.38
2023-01-18T11:54:10.908Z,98771.03
2023-01-18T11:56:43.740Z,98809.53
2023-01-18T11:59:14.950Z,98803.22
2023-01-18T12:02:05.729Z,98787.91
2023-01-18T12:04:44.559Z,98792.09
2023-01-18T12:07:21.859Z,98799.38
2023-01-18T12:09:53.167Z,98798.06
2023-01-18T12:12:30.227Z,98780.72
2023-01-18T12:15:09.126Z,98784.53
2023-01-18T12:17:48.455Z,98787.72
2023-01-18T12:20:25.785Z,98805.44
2023-01-18T12:23:11.905Z,98815.34
2023-01-18T12:26:06.998Z,98807.09
2023-01-18T12:28:50.503Z,98791.34
2023-01-18T12:31:25.898Z,98793.13
2023-01-18T12:33:58.518Z,98803.19
2023-01-18T12:36:38.681Z,98805.75
2023-01-18T12:39:12.093Z,98794.44
2023-01-18T12:41:45.794Z,98798.66
2023-01-18T12:44:34.702Z,98804.66
2023-01-18T12:47:10.643Z,98795.06
2023-01-18T12:49:41.433Z,98802.34
2023-01-18T12:52:18.684Z,98814.66
2023-01-18T12:54:48.635Z,98802.22
2023-01-18T12:57:18.403Z,98806.72
2023-01-18T12:59:48.880Z,98802.81
2023-01-18T13:02:25.203Z,98810.41
2023-01-18T13:04:55.267Z,98809.75
2023-01-18T13:07:27.798Z,98804.81
2023-01-18T13:09:55.904Z,98814.00
2023-01-18T13:12:25.450Z,98802.94
2023-01-18T13:14:57.671Z,98792.19
2023-01-18T13:17:28.562Z,98808.34
2023-01-18T13:20:00.400Z,98804.06
2023-01-18T13:22:35.080Z,98793.69
2023-01-18T13:25:23.046Z,98809.97
2023-01-18T13:28:02.089Z,98819.06
2023-01-18T13:30:31.945Z,98797.97
2023-01-18T13:33:00.372Z,98798.16
2023-01-18T13:35:33.245Z,98794.66
2023-01-18T13:38:02.340Z,98806.69
2023-01-18T13:40:42.727Z,98799.75
2023-01-18T13:43:34.007Z,98799.09
2023-01-18T13:46:03.904Z,98810.47
2023-01-18T13:48:50.961Z,98812.91
2023-01-18T13:51:57.328Z,98810.97
2023-01-18T13:55:02.358Z,98817.94
2023-01-18T13:57:31.676Z,98822.41
2023-01-18T14:00:02.295Z,98799.75
2023-01-18T14:02:33.970Z,98806.25
2023-01-18T14:05:08.851Z,98801.53
2023-01-18T14:07:42.815Z,98824.38
2023-01-18T14:10:38.139Z,98839.19
2023-01-18T14:13:07.256Z,98830.88
2023-01-18T14:15:53.267Z,98821.69
2023-01-18T14:18:26.200Z,98836.38
2023-01-18T14:21:12.392Z,98813.72
2023-01-18T14:24:12.610Z,98821.50
2023-01-18T14:26:41.939Z,98826.09
2023-01-18T14:29:13.109Z,98796.09
2023-01-18T14:31:45.095Z,98825.09
2023-01-18T14:34:30.498Z,98818.94
2023-01-18T14:36:58.579Z,98811.06
2023-01-18T14:39:28.758Z,98819.75
2023-01-18T14:41:58.679Z,98822.19
2023-01-18T14:44:30.023Z,98812.03
2023-01-18T14:46:59.161Z,98831.59
2023-01-18T14:49:28.990Z,98838.28
2023-01-18T14:51:57.126Z,98833.13
2023-01-18T14:54:25.983Z,98826.13
2023-01-18T14:57:01.290Z,98824.28
2023-01-18T14:59:30.996Z,98815.13
2023-01-18T15:02:01.500Z,98812.31
2023-01-18T15:04:30.685Z,98823.16
2023-01-18T15:07:00.092Z,98819.22
2023-01-18T15:09:28.405Z,98828.06
2023-01-18T15:11:57.969Z,98827.91
2023-01-18T15:14:27.155Z,98817.16
2023-01-18T15:16:56.904Z,98837.66
2023-01-18T15:19:30.843Z,98829.59
2023-01-18T15:22:00.289Z,98838.16
2023-01-18T15:24:29.284Z,98838.78
2023-01-18T15:26:58.506Z,98838.91
2023-01-18T15:29:28.102Z,98834.78
2023-01-18T15:31:57.530Z,98845.31
2023-01-18T15:34:29.335Z,98853.91
2023-01-18T15:36:58.478Z,98848.31
2023-01-18T15:39:26.845Z,98843.16
2023-01-18T15:41:56.406Z,98843.59
2023-01-18T15:44:33.315Z,98847.91
2023-01-18T15:47:01.303Z,98865.84
2023-01-18T15:49:30.526Z,98860.56
2023-01-18T15:51:58.198Z,98860.38
2023-01-18T15:54:28.084Z,98858.91
2023-01-18T15:56:58.808Z,98851.09
2023-01-18T15:59:28.166Z,98859.06
2023-01-18T16:02:05.755Z,98846.44
2023-01-18T16:04:35.038Z,98854.97
2023-01-18T16:07:35.976Z,98860.44
2023-01-18T16:10:27.735Z,98859.97
2023-01-18T16:12:57.018Z,98857.72
2023-01-18T16:15:26.607Z,98852.16
2023-01-18T16:17:57.993Z,98851.78
2023-01-18T16:20:27.247Z,98837.53
2023-01-18T16:22:56.126Z,98848.13
2023-01-18T16:25:24.820Z,98849.13
2023-01-18T16:27:54.267Z,98853.13
2023-01-18T16:30:24.692Z,98863.06
2023-01-18T16:32:52.671Z,98856.72
2023-01-18T16:35:22.553Z,98860.47
2023-01-18T16:37:52.059Z,98858.50
2023-01-18T16:40:21.662Z,98850.88
2023-01-18T16:42:57.273Z,98847.69
2023-01-18T16:45:24.987Z,98853.38
2023-01-18T16:47:52.909Z,98872.56
2023-01-18T16:50:20.734Z,98887.34
2023-01-18T16:52:48.450Z,98875.50
2023-01-18T16:55:18.111Z,98874.63
2023-01-18T16:57:46.411Z,98895.91
2023-01-18T17:00:19.244Z,98887.50
2023-01-18T17:02:47.107Z,98883.22
2023-01-18T17:05:15.736Z,98890.34
2023-01-18T17:07:43.564Z,98902.25
2023-01-18T17:10:23.491Z,98901.66
2023-01-18T17:12:51.166Z,98906.97
2023-01-18T17:15:20.150Z,98911.00
2023-01-18T17:17:48.064Z,98908.88
2023-01-18T17:20:18.341Z,98900.50
2023-01-18T17:22:46.115Z,98911.66
2023-01-18T17:25:14.087Z,98899.72
2023-01-18T17:27:43.216Z,98907.09
2023-01-18T17:30:13.349Z,98913.06
2023-01-18T17:32:41.050Z,98922.34
2023-01-18T17:35:09.503Z,98917.63
2023-01-18T17:40:17.219Z,98903.25
2023-01-18T17:42:53.255Z,98912.84
2023-01-18T17:45:21.285Z,98929.91
2023-01-18T17:47:48.950Z,98924.28
2023-01-18T17:50:22.880Z,98928.59
2023-01-18T17:52:50.558Z,98928.94
2023-01-18T17:55:24.299Z,98922.59
2023-01-18T17:57:56.588Z,98941.56
2023-01-18T18:00:24.276Z,98923.53
2023-01-18T18:02:52.701Z,98931.88
2023-01-18T18:05:20.833Z,98922.69
2023-01-18T18:07:49.536Z,98927.97
2023-01-18T18:10:17.885Z,98942.38
2023-01-18T18:12:45.707Z,98937.47
2023-01-18T18:15:14.719Z,98938.84
2023-01-18T18:17:42.574Z,98926.47
2023-01-18T18:20:11.392Z,98924.81
2023-01-18T18:22:39.478Z,98946.75
2023-01-18T18:25:08.105Z,98928.56
2023-01-18T18:27:51.472Z,98945.22
2023-01-18T18:30:20.653Z,98933.63
2023-01-18T18:32:48.770Z,98951.84
2023-01-18T18:35:25.527Z,98940.34
2023-01-18T18:37:55.378Z,98934.47
2023-01-18T18:40:23.290Z,98955.53
2023-01-18T18:43:01.755Z,98958.56
2023-01-18T18:45:32.427Z,98930.09
2023-01-18T18:48:00.520Z,98954.31
2023-01-18T18:50:28.438Z,98939.03
2023-01-18T18:52:56.218Z,98977.44
2023-01-18T18:55:24.498Z,98956.59
2023-01-18T18:57:52.196Z,98963.13
2023-01-18T19:00:20.787Z,98959.25
2023-01-18T19:02:49.877Z,98967.00
2023-01-18T19:05:17.797Z,98971.53
2023-01-18T19:07:47.028Z,98970.22
2023-01-18T19:10:14.736Z,98968.16
2023-01-18T19:12:42.459Z,98977.09
2023-01-18T19:15:10.541Z,98976.91
2023-01-18T19:17:38.244Z,98970.22
2023-01-18T19:20:09.948Z,98953.81
2023-01-18T19:22:38.444Z,98958.78
2023-01-18T19:25:07.200Z,98972.72
2023-01-18T19:27:34.922Z,98977.03
2023-01-18T19:30:02.644Z,98986.50
2023-01-18T19:32:30.368Z,98982.28
2023-01-18T19:34:58.055Z,98997.94
2023-01-18T19:37:27.191Z,98983.50
2023-01-18T19:39:54.846Z,98985.56
2023-01-18T19:42:22.482Z,99003.84
2023-01-18T19:44:51.912Z,99001.41
2023-01-18T19:47:19.680Z,98977.94
2023-01-18T19:49:47.326Z,98986.81
2023-01-18T19:52:15.141Z,99004.94
2023-01-18T19:54:44.330Z,99011.16
2023-01-18T19:57:12.655Z,99019.97
2023-01-18T19:59:40.364Z,99002.31
2023-01-18T20:02:08.405Z,99003.06
2023-01-18T20:04:37.787Z,99011.94
2023-01-18T20:07:05.922Z,99013.78
2023-01-18T20:09:42.845Z,99025.25
2023-01-18T20:12:13.331Z,99023.31
2023-01-18T20:14:42.517Z,99024.25
2023-01-18T20:17:10.518Z,99030.41
2023-01-18T20:19:38.305Z,99022.25
2023-01-18T20:22:05.990Z,99022.44
2023-01-18T20:24:33.748Z,99040.44
2023-01-18T20:27:14.885Z,99023.00
2023-01-18T20:29:44.744Z,99017.22
2023-01-18T20:32:16.715Z,99024.78
2023-01-18T20:34:46.655Z,99026.13
2023-01-18T20:37:15.573Z,99020.16
2023-01-18T20:39:43.427Z,99040.53
2023-01-18T20:42:11.342Z,99047.72
2023-01-18T20:44:39.197Z,99047.72
2023-01-18T20:47:08.230Z,99036.91
2023-01-18T20:49:38.878Z,99042.19
2023-01-18T20:52:07.092Z,99037.56
2023-01-18T20:54:36.250Z,99039.06
2023-01-18T20:57:05.430Z,99046.09
2023-01-18T20:59:33.163Z,99040.44
2023-01-18T21:02:01.541Z,99035.41
2023-01-18T21:04:30.753Z,99029.34
2023-01-18T21:06:58.822Z,99039.78
2023-01-18T21:09:26.976Z,99052.56
2023-01-18T21:11:54.645Z,99061.84
2023-01-18T21:14:22.372Z,99046.34
2023-01-18T21:16:50.110Z,99072.63
2023-01-18T21:19:18.152Z,99057.28
2023-01-18T21:21:47.289Z,99062.59
2023-01-18T21:24:15.002Z,99049.84
2023-01-18T21:26:42.658Z,99060.91
2023-01-18T21:29:10.314Z,99061.84
2023-01-18T21:31:40.068Z,99063.56
2023-01-18T21:34:08.546Z,99065.88
2023-01-18T21:36:36.228Z,99064.28
2023-01-18T21:39:05.531Z,99074.41
2023-01-18T21:41:50.664Z,99075.94
2023-01-18T21:44:36.027Z,99067.69
2023-01-18T21:47:03.737Z,99051.59
2023-01-18T21:50:16.955Z,99067.50
2023-01-18T21:52:55.980Z,99065.03
2023-01-18T21:55:25.096Z,99067.69
2023-01-18T21:58:06.641Z,99065.34
2023-01-18T22:00:37.560Z,99064.88
2023-01-18T22:03:05.625Z,99064.50
2023-01-18T22:05:33.823Z,99074.63
2023-01-18T22:08:01.863Z,99049.53
2023-01-18T22:10:31.073Z,99057.94
2023-01-18T22:12:58.819Z,99051.97
2023-01-18T22:15:26.682Z,99070.03
2023-01-18T22:17:54.402Z,99048.16
2023-01-18T22:20:22.030Z,99062.22
2023-01-18T22:22:50.439Z,99055.47
2023-01-18T22:25:18.536Z,99071.91
2023-01-18T22:27:48.108Z,99070.59
2023-01-18T22:30:15.943Z,99071.25
2023-01-18T22:32:43.644Z,99081.38
2023-01-18T22:35:11.452Z,99082.38
2023-01-18T22:37:39.174Z,99090.97
2023-01-18T22:40:08.636Z,99093.56
2023-01-18T22:42:36.409Z,99090.47
2023-01-18T22:45:06.213Z,99088.28
2023-01-18T22:47:33.914Z,99093.34
2023-01-18T22:50:01.635Z,99093.88
2023-01-18T22:52:29.364Z,99086.94
2023-01-18T22:54:57.117Z,99073.31
2023-01-18T22:57:24.850Z,99084.22
2023-01-18T22:59:52.511Z,99081.22
2023-01-18T23:02:21.775Z,99070.09
2023-01-18T23:04:49.470Z,99088.53
2023-01-18T23:07:18.762Z,99079.97
2023-01-18T23:09:46.512Z,99079.53
2023-01-18T23:12:14.220Z,99096.03
2023-01-18T23:14:59.645Z,99087.97
2023-01-18T23:17:42.219Z,99092.47
2023-01-18T23:20:13.428Z,99094.09
2023-01-18T23:22:41.190Z,99093.69
2023-01-18T23:25:09.690Z,99093.34
2023-01-18T23:27:37.326Z,99082.53
2023-01-18T23:30:06.398Z,99097.03
2023-01-18T23:32:37.220Z,99084.72
2023-01-18T23:35:06.287Z,99100.00
2023-01-18T23:37:34.135Z,99089.22
2023-01-18T23:40:19.384Z,99096.66
2023-01-18T23:43:04.761Z,99121.44
2023-01-18T23:45:50.096Z,99120.72
2023-01-18T23:48:37.737Z,99099.38
2023-01-18T23:51:23.172Z,99127.66
2023-01-18T23:54:08.434Z,99118.22
2023-01-18T23:56:36.130Z,99118.66
2023-01-18T23:59:04.171Z,99126.81
